Aitana Del Mar — EBWK — position and weather

sailwx.info

Track history (hours):
 
Tides and Currents Weather Stations Pressure Air Temp Water Temp Dewpoint Dewpoint Depression Visibility Wind Speed Wind Dir Waves Ship Positions

Aitana Del Mar

Last reported at 2017-Dec-07 03:52 UTC. Time now 2017-Dec-17 11:50 UTC.
Position N 43°25' W 003°25'.
Warning: this ship's position is 10 days out of date.

Length 31 m; draft 3.6 m.

Type: Fishing. MMSI: 224064850.

Date/timePositionNaut miles runAvg speedWind from/ knotsBaromVisibWave heightAir tempDewpointWater temp
2017-Dec-07 03:52N 43°25' W 003°25'0 0.0
2017-Dec-07 03:03N 43°25' W 003°25'0 0.0
2017-Dec-07 02:19N 43°25' W 003°25'2 4.7
2017-Dec-07 02:00N 43°26' W 003°24'4 8.9
2017-Dec-07 01:30N 43°29' W 003°19'5 9.9
2017-Dec-07 01:00N 43°32' W 003°14'4 8.6
2017-Dec-07 00:30N 43°34' W 003°08'5 9.9
2017-Dec-07 00:00N 43°35' W 003°01'5 9.8
2017-Dec-06 23:30N 43°36' W 002°55'5 9.9
2017-Dec-06 23:00N 43°37' W 002°48'510.1
2017-Dec-06 22:30N 43°38' W 002°41'510.3
2017-Dec-06 22:01N 43°39' W 002°34'510.2
2017-Dec-06 21:30N 43°40' W 002°27'510.2
2017-Dec-06 21:01N 43°41' W 002°21'  
2017-Nov-29 19:50N 43°25' W 003°25'3 9.8
2017-Nov-29 19:30N 43°27' W 003°22'5 9.7
2017-Nov-29 19:00N 43°30' W 003°16'3 6.8
2017-Nov-29 18:31N 43°32' W 003°13'0 0.5
2017-Nov-29 18:00N 43°33' W 003°13'0 0.2
2017-Nov-29 17:30N 43°33' W 003°13'3 5.7
2017-Nov-29 17:01N 43°31' W 003°16'5 9.6
2017-Nov-29 16:30N 43°28' W 003°21'4 0.1
2017-Nov-28 07:45N 43°25' W 003°25'0 0.0
2017-Nov-28 07:20N 43°25' W 003°25'0 0.0
2017-Nov-28 06:59N 43°25' W 003°25'0 0.0
2017-Nov-28 06:22N 43°25' W 003°25'0 0.0
2017-Nov-28 05:43N 43°25' W 003°25'0 0.0
2017-Nov-28 05:20N 43°25' W 003°25'2 3.0
2017-Nov-28 04:31N 43°27' W 003°23'4 7.0
2017-Nov-28 04:01N 43°29' W 003°19'3 6.8
2017-Nov-28 03:31N 43°31' W 003°15'2 4.9
2017-Nov-28 03:00N 43°33' W 003°13'0 0.7
2017-Nov-28 02:31N 43°33' W 003°13'0 0.2
2017-Nov-28 01:59N 43°33' W 003°13'0 0.9
2017-Nov-28 01:30N 43°33' W 003°12'0 0.5
2017-Nov-28 01:00N 43°33' W 003°13'0 0.3
2017-Nov-28 00:30N 43°33' W 003°13'0 0.4
2017-Nov-28 00:01N 43°33' W 003°13'0 0.3
2017-Nov-27 23:31N 43°32' W 003°13'0 0.4
2017-Nov-27 23:01N 43°33' W 003°13'0 0.3
2017-Nov-27 22:31N 43°33' W 003°13'1 1.0
2017-Nov-27 22:01N 43°33' W 003°13'0 0.3
2017-Nov-27 21:28N 43°33' W 003°13'0 0.2
2017-Nov-27 21:01N 43°33' W 003°13'0 0.2
2017-Nov-27 20:29N 43°33' W 003°13'0 0.2
2017-Nov-27 20:01N 43°33' W 003°13'0 0.4
2017-Nov-27 19:29N 43°33' W 003°13'0 0.1
2017-Nov-27 19:00N 43°33' W 003°13'0 0.5
2017-Nov-27 18:30N 43°33' W 003°13'0 0.3
2017-Nov-27 18:01N 43°33' W 003°13'0 0.5
2017-Nov-27 17:30N 43°33' W 003°13'2 3.4
2017-Nov-27 17:01N 43°32' W 003°15'510.2
2017-Nov-27 16:31N 43°28' W 003°20'5 9.5
2017-Nov-27 15:59N 43°25' W 003°25'  
Track history (hours):
 
Tides and Currents Weather Stations Pressure Air Temp Water Temp Dewpoint Dewpoint Depression Visibility Wind Speed Wind Dir Waves Ship Positions

Aitana Del Mar

Last reported at 2017-Dec-07 03:52 UTC. Time now 2017-Dec-17 11:50 UTC.
Position N 43°25' W 003°25'.
Warning: this ship's position is 10 days out of date.

Length 31 m; draft 3.6 m.

Type: Fishing. MMSI: 224064850.

Date/timePositionNaut miles runAvg speedWind from/ knotsBaromVisibWave heightAir tempDewpointWater temp
2017-Dec-07 03:52N 43°25' W 003°25'0 0.0
2017-Dec-07 03:03N 43°25' W 003°25'0 0.0
2017-Dec-07 02:19N 43°25' W 003°25'2 4.7
2017-Dec-07 02:00N 43°26' W 003°24'4 8.9
2017-Dec-07 01:30N 43°29' W 003°19'5 9.9
2017-Dec-07 01:00N 43°32' W 003°14'4 8.6
2017-Dec-07 00:30N 43°34' W 003°08'5 9.9
2017-Dec-07 00:00N 43°35' W 003°01'5 9.8
2017-Dec-06 23:30N 43°36' W 002°55'5 9.9
2017-Dec-06 23:00N 43°37' W 002°48'510.1
2017-Dec-06 22:30N 43°38' W 002°41'510.3
2017-Dec-06 22:01N 43°39' W 002°34'510.2
2017-Dec-06 21:30N 43°40' W 002°27'510.2
2017-Dec-06 21:01N 43°41' W 002°21'  
2017-Nov-29 19:50N 43°25' W 003°25'3 9.8
2017-Nov-29 19:30N 43°27' W 003°22'5 9.7
2017-Nov-29 19:00N 43°30' W 003°16'3 6.8
2017-Nov-29 18:31N 43°32' W 003°13'0 0.5
2017-Nov-29 18:00N 43°33' W 003°13'0 0.2
2017-Nov-29 17:30N 43°33' W 003°13'3 5.7
2017-Nov-29 17:01N 43°31' W 003°16'5 9.6
2017-Nov-29 16:30N 43°28' W 003°21'4 0.1
2017-Nov-28 07:45N 43°25' W 003°25'0 0.0
2017-Nov-28 07:20N 43°25' W 003°25'0 0.0
2017-Nov-28 06:59N 43°25' W 003°25'0 0.0
2017-Nov-28 06:22N 43°25' W 003°25'0 0.0
2017-Nov-28 05:43N 43°25' W 003°25'0 0.0
2017-Nov-28 05:20N 43°25' W 003°25'2 3.0
2017-Nov-28 04:31N 43°27' W 003°23'4 7.0
2017-Nov-28 04:01N 43°29' W 003°19'3 6.8
2017-Nov-28 03:31N 43°31' W 003°15'2 4.9
2017-Nov-28 03:00N 43°33' W 003°13'0 0.7
2017-Nov-28 02:31N 43°33' W 003°13'0 0.2
2017-Nov-28 01:59N 43°33' W 003°13'0 0.9
2017-Nov-28 01:30N 43°33' W 003°12'0 0.5
2017-Nov-28 01:00N 43°33' W 003°13'0 0.3
2017-Nov-28 00:30N 43°33' W 003°13'0 0.4
2017-Nov-28 00:01N 43°33' W 003°13'0 0.3
2017-Nov-27 23:31N 43°32' W 003°13'0 0.4
2017-Nov-27 23:01N 43°33' W 003°13'0 0.3
2017-Nov-27 22:31N 43°33' W 003°13'1 1.0
2017-Nov-27 22:01N 43°33' W 003°13'0 0.3
2017-Nov-27 21:28N 43°33' W 003°13'0 0.2
2017-Nov-27 21:01N 43°33' W 003°13'0 0.2
2017-Nov-27 20:29N 43°33' W 003°13'0 0.2
2017-Nov-27 20:01N 43°33' W 003°13'0 0.4
2017-Nov-27 19:29N 43°33' W 003°13'0 0.1
2017-Nov-27 19:00N 43°33' W 003°13'0 0.5
2017-Nov-27 18:30N 43°33' W 003°13'0 0.3
2017-Nov-27 18:01N 43°33' W 003°13'0 0.5
2017-Nov-27 17:30N 43°33' W 003°13'2 3.4
2017-Nov-27 17:01N 43°32' W 003°15'510.2
2017-Nov-27 16:31N 43°28' W 003°20'5 9.5
2017-Nov-27 15:59N 43°25' W 003°25'  

Dump ship's entire track history